createdAt,value
2022-12-05T00:01:25.988Z,74.87
2022-12-05T00:03:57.235Z,74.62
2022-12-05T00:06:26.963Z,74.74
2022-12-05T00:08:53.956Z,74.77
2022-12-05T00:11:25.025Z,75.51
2022-12-05T00:13:54.472Z,74.63
2022-12-05T00:16:24.295Z,74.43
2022-12-05T00:18:52.313Z,74.43
2022-12-05T00:21:25.886Z,74.44
2022-12-05T00:23:55.407Z,73.95
2022-12-05T00:26:23.070Z,73.95
2022-12-05T00:28:50.304Z,73.62
2022-12-05T00:31:21.541Z,73.56
2022-12-05T00:33:49.139Z,73.15
2022-12-05T00:36:20.373Z,72.87
2022-12-05T00:38:47.755Z,75.69
2022-12-05T00:41:19.093Z,75.19
2022-12-05T00:43:46.537Z,74.64
2022-12-05T00:46:26.571Z,74.03
2022-12-05T00:48:56.054Z,73.79
2022-12-05T00:51:29.787Z,74.42
2022-12-05T00:54:02.134Z,74.17
2022-12-05T00:56:30.696Z,75.18
2022-12-05T00:58:59.075Z,74.66
2022-12-05T01:01:38.619Z,74.76
2022-12-05T01:04:14.810Z,74.47
2022-12-05T01:06:43.133Z,74.92
2022-12-05T01:09:14.422Z,74.42
2022-12-05T01:11:42.509Z,74.31
2022-12-05T01:14:19.310Z,74.14
2022-12-05T01:16:49.013Z,73.53
2022-12-05T01:19:23.851Z,73.28
2022-12-05T01:21:51.138Z,73.84
2022-12-05T01:24:19.947Z,73.59
2022-12-05T01:26:48.262Z,73.52
2022-12-05T01:29:18.243Z,74.42
2022-12-05T01:31:45.838Z,74.15
2022-12-05T01:34:16.012Z,73.71
2022-12-05T01:36:43.075Z,73.43
2022-12-05T01:39:12.058Z,73.39
2022-12-05T01:41:43.836Z,73.22
2022-12-05T01:44:13.515Z,74.24
2022-12-05T01:46:47.551Z,73.99
2022-12-05T01:49:32.489Z,73.69
2022-12-05T01:52:04.919Z,74.02
2022-12-05T01:54:32.053Z,74.54
2022-12-05T01:57:03.374Z,74.08
2022-12-05T01:59:37.093Z,73.76
2022-12-05T02:02:04.978Z,74.04
2022-12-05T02:04:35.926Z,73.80
2022-12-05T02:07:02.704Z,73.59
2022-12-05T02:09:29.490Z,74.29
2022-12-05T02:12:01.237Z,75.25
2022-12-05T02:15:16.375Z,73.76
2022-12-05T02:18:32.145Z,75.04
2022-12-05T02:21:48.183Z,74.34
2022-12-05T02:24:51.083Z,74.49
2022-12-05T02:27:50.540Z,74.40
2022-12-05T02:30:23.552Z,74.92
2022-12-05T02:33:12.014Z,73.96
2022-12-05T02:35:44.581Z,74.91
2022-12-05T02:38:25.096Z,74.44
2022-12-05T02:41:40.652Z,75.01
2022-12-05T02:44:18.967Z,74.63
2022-12-05T02:46:48.793Z,75.34
2022-12-05T02:49:23.220Z,75.65
2022-12-05T02:51:56.862Z,75.47
2022-12-05T02:54:29.709Z,74.97
2022-12-05T02:56:59.405Z,74.83
2022-12-05T02:59:26.344Z,74.87
2022-12-05T03:01:53.302Z,74.76
2022-12-05T03:04:23.697Z,74.53
2022-12-05T03:07:20.861Z,74.24
2022-12-05T03:09:59.726Z,74.78
2022-12-05T03:12:32.562Z,75.15
2022-12-05T03:15:17.546Z,75.03
2022-12-05T03:18:13.380Z,74.70
2022-12-05T03:20:48.458Z,75.02
2022-12-05T03:23:24.558Z,74.72
2022-12-05T03:26:12.087Z,74.94
2022-12-05T03:29:26.009Z,75.06
2022-12-05T03:32:24.802Z,74.98
2022-12-05T03:35:12.249Z,75.57
2022-12-05T03:38:01.027Z,74.88
2022-12-05T03:40:35.172Z,74.80
2022-12-05T03:43:14.588Z,74.82
2022-12-05T03:46:12.023Z,75.35
2022-12-05T03:49:17.063Z,75.03
2022-12-05T03:52:14.192Z,74.88
2022-12-05T03:54:56.842Z,75.81
2022-12-05T03:57:36.274Z,75.29
2022-12-05T04:00:09.445Z,75.41
2022-12-05T04:02:45.795Z,75.78
2022-12-05T04:05:45.035Z,76.45
2022-12-05T04:08:29.707Z,75.83
2022-12-05T04:11:03.469Z,76.23
2022-12-05T04:14:09.295Z,75.36
2022-12-05T04:17:04.668Z,76.97
2022-12-05T04:20:10.402Z,75.52
2022-12-05T04:22:38.369Z,75.21
2022-12-05T04:25:27.704Z,75.76
2022-12-05T04:28:21.224Z,76.36
2022-12-05T04:31:07.253Z,75.59
2022-12-05T04:33:50.489Z,75.78
2022-12-05T04:36:32.549Z,75.81
2022-12-05T04:39:05.622Z,76.11
2022-12-05T04:41:43.111Z,75.53
2022-12-05T04:44:14.841Z,75.51
2022-12-05T04:46:45.040Z,75.23
2022-12-05T04:49:17.583Z,75.44
2022-12-05T04:51:47.034Z,76.07
2022-12-05T04:54:25.368Z,75.80
2022-12-05T04:57:01.245Z,75.92
2022-12-05T04:59:28.379Z,75.70
2022-12-05T05:02:02.154Z,75.63
2022-12-05T05:04:51.497Z,75.66
2022-12-05T05:07:19.726Z,75.58
2022-12-05T05:09:46.505Z,75.44
2022-12-05T05:12:18.802Z,75.95
2022-12-05T05:14:46.136Z,75.65
2022-12-05T05:17:13.032Z,75.71
2022-12-05T05:19:39.828Z,75.69
2022-12-05T05:22:06.629Z,75.71
2022-12-05T05:24:33.513Z,75.84
2022-12-05T05:27:00.326Z,75.27
2022-12-05T05:29:27.176Z,74.87
2022-12-05T05:31:54.008Z,74.71
2022-12-05T05:34:20.806Z,74.73
2022-12-05T05:36:52.619Z,74.86
2022-12-05T05:39:19.526Z,74.74
2022-12-05T05:41:46.531Z,74.35
2022-12-05T05:44:13.383Z,74.80
2022-12-05T05:46:40.404Z,74.12
2022-12-05T05:49:07.299Z,74.18
2022-12-05T05:51:34.231Z,74.25
2022-12-05T05:54:01.428Z,74.14
2022-12-05T05:56:29.922Z,73.74
2022-12-05T05:59:00.675Z,74.09
2022-12-05T06:01:29.576Z,73.80
2022-12-05T06:03:57.803Z,73.82
2022-12-05T06:06:25.276Z,73.56
2022-12-05T06:08:52.114Z,73.72
2022-12-05T06:11:27.005Z,73.36
2022-12-05T06:13:56.223Z,73.85
2022-12-05T06:16:23.632Z,73.72
2022-12-05T06:18:51.802Z,73.38
2022-12-05T06:21:18.650Z,73.27
2022-12-05T06:23:45.883Z,73.34
2022-12-05T06:26:16.913Z,73.74
2022-12-05T06:28:44.359Z,73.43
2022-12-05T06:31:15.756Z,73.46
2022-12-05T06:33:43.322Z,73.74
2022-12-05T06:36:14.163Z,73.77
2022-12-05T06:38:42.496Z,73.32
2022-12-05T06:41:15.755Z,73.61
2022-12-05T06:43:42.957Z,73.52
2022-12-05T06:46:12.808Z,73.87
2022-12-05T06:48:39.847Z,73.63
2022-12-05T06:51:11.028Z,73.53
2022-12-05T06:53:38.431Z,73.80
2022-12-05T06:56:08.165Z,73.57
2022-12-05T06:58:35.097Z,73.47
2022-12-05T07:01:20.433Z,73.67
2022-12-05T07:03:49.361Z,73.49
2022-12-05T07:06:17.216Z,73.53
2022-12-05T07:08:44.984Z,73.28
2022-12-05T07:11:12.166Z,73.37
2022-12-05T07:13:39.096Z,73.35
2022-12-05T07:16:07.321Z,73.46
2022-12-05T07:18:35.728Z,73.08
2022-12-05T07:21:12.849Z,73.43
2022-12-05T07:23:41.805Z,73.08
2022-12-05T07:26:11.915Z,73.45
2022-12-05T07:28:38.674Z,73.40
2022-12-05T07:31:09.864Z,73.31
2022-12-05T07:33:37.879Z,73.12
2022-12-05T07:36:15.043Z,73.60
2022-12-05T07:38:42.526Z,73.69
2022-12-05T07:41:20.707Z,73.89
2022-12-05T07:43:47.565Z,73.71
2022-12-05T07:46:14.531Z,73.87
2022-12-05T07:48:41.460Z,73.40
2022-12-05T07:51:10.763Z,72.96
2022-12-05T07:53:39.181Z,73.00
2022-12-05T07:56:08.564Z,73.60
2022-12-05T07:58:36.221Z,73.29
2022-12-05T08:01:12.770Z,73.21
2022-12-05T08:03:39.832Z,73.00
2022-12-05T08:06:13.465Z,72.74
2022-12-05T08:08:40.410Z,73.31
2022-12-05T08:11:11.530Z,72.94
2022-12-05T08:13:38.869Z,73.38
2022-12-05T08:16:10.679Z,72.92
2022-12-05T08:18:37.853Z,73.12
2022-12-05T08:21:09.369Z,73.82
2022-12-05T08:23:37.612Z,73.23
2022-12-05T08:26:14.203Z,73.16
2022-12-05T08:28:42.608Z,73.50
2022-12-05T08:31:16.640Z,72.95
2022-12-05T08:33:44.299Z,73.34
2022-12-05T08:36:15.446Z,73.00
2022-12-05T08:38:44.319Z,73.36
2022-12-05T08:41:14.681Z,73.55
2022-12-05T08:43:41.916Z,72.97
2022-12-05T08:46:09.107Z,73.18
2022-12-05T08:48:36.761Z,72.91
2022-12-05T08:51:10.407Z,73.21
2022-12-05T08:53:44.072Z,73.34
2022-12-05T08:56:12.564Z,72.87
2022-12-05T08:58:40.077Z,73.01
2022-12-05T09:01:09.209Z,72.91
2022-12-05T09:03:36.464Z,73.53
2022-12-05T09:06:21.524Z,73.18
2022-12-05T09:08:49.932Z,73.94
2022-12-05T09:11:25.917Z,73.69
2022-12-05T09:13:55.440Z,73.77
2022-12-05T09:16:36.858Z,73.70
2022-12-05T09:19:05.333Z,73.64
2022-12-05T09:21:32.974Z,73.79
2022-12-05T09:24:00.926Z,73.34
2022-12-05T09:26:30.264Z,73.80
2022-12-05T09:28:57.472Z,73.47
2022-12-05T09:31:27.228Z,73.68
2022-12-05T09:33:54.979Z,72.71
2022-12-05T09:36:25.759Z,72.24
2022-12-05T09:38:54.366Z,71.99
2022-12-05T09:42:08.027Z,71.73
2022-12-05T09:45:15.081Z,71.07
2022-12-05T09:48:01.736Z,71.39
2022-12-05T09:50:33.812Z,70.80
2022-12-05T09:53:09.453Z,71.36
2022-12-05T09:55:49.926Z,71.12
2022-12-05T09:58:42.871Z,71.30
2022-12-05T10:01:38.922Z,71.10
2022-12-05T10:04:25.756Z,70.65
2022-12-05T10:07:27.255Z,72.08
2022-12-05T10:10:28.551Z,72.55
2022-12-05T10:13:27.610Z,72.34
2022-12-05T10:16:00.983Z,72.77
2022-12-05T10:18:46.728Z,72.30
2022-12-05T10:21:19.703Z,71.95
2022-12-05T10:24:04.062Z,72.45
2022-12-05T10:26:52.852Z,72.44
2022-12-05T10:29:35.588Z,73.08
2022-12-05T10:32:32.758Z,73.73
2022-12-05T10:35:21.699Z,73.21
2022-12-05T10:37:53.254Z,72.80
2022-12-05T10:40:21.150Z,72.01
2022-12-05T10:42:49.800Z,71.41
2022-12-05T10:45:23.265Z,71.04
2022-12-05T10:47:55.653Z,70.39
2022-12-05T10:50:36.748Z,71.66
2022-12-05T10:53:05.434Z,70.50
2022-12-05T10:56:00.081Z,70.81
2022-12-05T10:58:30.500Z,71.93
2022-12-05T11:01:14.015Z,71.75
2022-12-05T11:03:43.391Z,71.05
2022-12-05T11:06:30.076Z,71.48
2022-12-05T11:09:14.531Z,71.84
2022-12-05T11:11:41.382Z,71.81
2022-12-05T11:14:24.892Z,70.96
2022-12-05T11:16:58.159Z,72.20
2022-12-05T11:19:32.972Z,72.87
2022-12-05T11:22:00.584Z,72.79
2022-12-05T11:24:31.941Z,72.79
2022-12-05T11:27:20.906Z,73.70
2022-12-05T11:30:19.115Z,72.81
2022-12-05T11:32:46.095Z,73.03
2022-12-05T11:35:12.861Z,73.80
2022-12-05T11:37:56.094Z,73.73
2022-12-05T11:40:39.412Z,72.88
2022-12-05T11:43:46.994Z,72.17
2022-12-05T11:46:31.952Z,71.81
2022-12-05T11:49:42.461Z,72.77
2022-12-05T11:52:26.819Z,72.72
2022-12-05T11:55:17.001Z,72.06
2022-12-05T11:57:52.943Z,70.74
2022-12-05T12:00:40.757Z,70.71
2022-12-05T12:03:52.634Z,71.61
2022-12-05T12:06:32.707Z,71.92
2022-12-05T12:09:42.648Z,71.01
2022-12-05T12:12:57.702Z,71.56
2022-12-05T12:16:08.784Z,71.02
2022-12-05T12:18:55.275Z,71.11
2022-12-05T12:21:55.825Z,71.51
2022-12-05T12:24:41.838Z,71.41
2022-12-05T12:27:36.069Z,72.35
2022-12-05T12:30:44.327Z,72.62
2022-12-05T12:33:38.222Z,72.11
2022-12-05T12:36:35.489Z,72.27
2022-12-05T12:39:14.201Z,72.53
2022-12-05T12:41:52.841Z,72.52
2022-12-05T12:45:06.588Z,73.33
2022-12-05T12:48:08.555Z,72.73
2022-12-05T12:50:44.115Z,72.99
2022-12-05T12:53:56.067Z,72.93
2022-12-05T12:57:08.128Z,73.12
2022-12-05T13:00:10.805Z,72.38
2022-12-05T13:02:51.215Z,72.64
2022-12-05T13:05:36.176Z,72.96
2022-12-05T13:08:24.949Z,72.90
2022-12-05T13:10:53.719Z,73.35
2022-12-05T13:13:28.833Z,73.48
2022-12-05T13:16:00.876Z,73.40
2022-12-05T13:18:28.342Z,73.30
2022-12-05T13:20:58.876Z,73.65
2022-12-05T13:23:29.864Z,74.05
2022-12-05T13:26:00.118Z,74.38
2022-12-05T13:28:34.692Z,73.78
2022-12-05T13:31:03.956Z,73.74
2022-12-05T13:33:49.866Z,73.40
2022-12-05T13:36:40.519Z,73.52
2022-12-05T13:39:46.235Z,73.83
2022-12-05T13:42:27.832Z,73.60
2022-12-05T13:44:58.977Z,73.86
2022-12-05T13:48:00.610Z,74.10
2022-12-05T13:50:52.866Z,74.81
2022-12-05T13:53:33.222Z,74.67
2022-12-05T13:56:06.068Z,74.38
2022-12-05T13:58:57.206Z,74.71
2022-12-05T14:01:27.042Z,74.76
2022-12-05T14:03:59.695Z,74.65
2022-12-05T14:06:38.516Z,74.47
2022-12-05T14:09:50.185Z,74.47
2022-12-05T14:12:16.868Z,74.78
2022-12-05T14:14:56.566Z,74.59
2022-12-05T14:17:43.942Z,74.62
2022-12-05T14:20:29.784Z,74.47
2022-12-05T14:23:27.258Z,74.36
2022-12-05T14:26:19.046Z,74.69
2022-12-05T14:28:57.591Z,74.50
2022-12-05T14:31:58.416Z,74.25
2022-12-05T14:34:35.389Z,74.58
2022-12-05T14:37:17.551Z,74.68
2022-12-05T14:39:47.161Z,74.25
2022-12-05T14:42:57.379Z,74.73
2022-12-05T14:45:39.581Z,74.72
2022-12-05T14:48:15.630Z,74.40
2022-12-05T14:50:45.532Z,74.61
2022-12-05T14:53:15.238Z,74.54
2022-12-05T14:55:47.512Z,74.68
2022-12-05T14:58:20.219Z,74.68
2022-12-05T15:01:00.234Z,75.07
2022-12-05T15:03:39.952Z,74.83
2022-12-05T15:06:15.857Z,75.23
2022-12-05T15:08:50.554Z,74.73
2022-12-05T15:11:28.539Z,75.07
2022-12-05T15:14:08.736Z,74.91
2022-12-05T15:16:44.104Z,74.91
2022-12-05T15:19:50.956Z,75.03
2022-12-05T15:22:22.022Z,74.99
2022-12-05T15:24:48.944Z,74.83
2022-12-05T15:27:16.700Z,74.89
2022-12-05T15:29:43.892Z,75.00
2022-12-05T15:32:10.658Z,75.08
2022-12-05T15:34:49.399Z,75.04
2022-12-05T15:37:20.569Z,74.68
2022-12-05T15:39:59.589Z,75.63
2022-12-05T15:42:34.143Z,74.98
2022-12-05T15:45:15.424Z,75.91
2022-12-05T15:47:48.306Z,75.37
2022-12-05T15:50:20.206Z,75.45
2022-12-05T15:53:05.166Z,75.63
2022-12-05T15:55:41.551Z,75.15
2022-12-05T15:58:28.068Z,75.47
2022-12-05T16:01:06.705Z,75.40
2022-12-05T16:03:58.811Z,74.96
2022-12-05T16:06:43.661Z,74.84
2022-12-05T16:09:17.983Z,74.89
2022-12-05T16:11:56.726Z,75.26
2022-12-05T16:17:17.491Z,75.75
2022-12-05T16:19:44.308Z,75.47
2022-12-05T16:22:17.871Z,75.22
2022-12-05T16:25:15.291Z,75.30
2022-12-05T16:27:44.025Z,75.32
2022-12-05T16:30:21.808Z,74.58
2022-12-05T16:32:57.248Z,74.90
2022-12-05T16:35:40.163Z,74.75
2022-12-05T16:38:17.381Z,75.66
2022-12-05T16:40:49.857Z,75.52
2022-12-05T16:43:27.635Z,75.66
2022-12-05T16:45:59.071Z,75.39
2022-12-05T16:48:31.526Z,75.23
2022-12-05T16:51:13.711Z,75.41
2022-12-05T16:53:47.261Z,75.25
2022-12-05T16:56:30.701Z,75.01
2022-12-05T16:58:58.778Z,75.13
2022-12-05T17:01:27.159Z,75.10
2022-12-05T17:03:56.125Z,75.50
2022-12-05T17:06:25.299Z,75.31
2022-12-05T17:08:55.612Z,74.75
2022-12-05T17:11:26.761Z,74.48
2022-12-05T17:13:56.198Z,74.78
2022-12-05T17:16:23.667Z,74.66
2022-12-05T17:18:50.557Z,74.73
2022-12-05T17:21:24.496Z,74.82
2022-12-05T17:23:51.916Z,74.78
2022-12-05T17:26:21.342Z,74.79
2022-12-05T17:28:49.238Z,74.91
2022-12-05T17:31:22.469Z,74.81
2022-12-05T17:33:51.661Z,74.90
2022-12-05T17:36:21.033Z,74.94
2022-12-05T17:38:48.833Z,74.79
2022-12-05T17:41:23.763Z,75.03
2022-12-05T17:43:51.529Z,75.11
2022-12-05T17:46:23.066Z,74.76
2022-12-05T17:48:51.660Z,75.16
2022-12-05T17:51:20.102Z,74.73
2022-12-05T17:53:47.654Z,75.03
2022-12-05T17:56:15.234Z,74.89
2022-12-05T17:58:42.416Z,75.06
2022-12-05T18:01:16.818Z,74.85
2022-12-05T18:03:44.034Z,75.09
2022-12-05T18:06:11.150Z,75.11
2022-12-05T18:08:50.824Z,75.02
2022-12-05T18:11:17.692Z,74.90
2022-12-05T18:13:44.477Z,74.80
2022-12-05T18:16:11.454Z,74.61
2022-12-05T18:18:38.996Z,74.74
2022-12-05T18:21:12.590Z,74.21
2022-12-05T18:23:40.927Z,74.39
2022-12-05T18:26:10.123Z,74.37
2022-12-05T18:28:38.886Z,74.67
2022-12-05T18:31:09.764Z,75.11
2022-12-05T18:33:36.875Z,75.07
2022-12-05T18:36:06.516Z,75.21
2022-12-05T18:38:33.418Z,74.86
2022-12-05T18:41:02.476Z,75.20
2022-12-05T18:43:29.685Z,75.41
2022-12-05T18:45:58.614Z,75.10
2022-12-05T18:48:46.052Z,75.31
2022-12-05T18:51:17.728Z,75.41
2022-12-05T18:53:51.989Z,75.47
2022-12-05T18:56:31.878Z,75.91
2022-12-05T18:59:05.503Z,75.99
2022-12-05T19:01:38.713Z,75.78
2022-12-05T19:04:07.546Z,75.93
2022-12-05T19:06:36.767Z,75.63
2022-12-05T19:09:15.880Z,75.94
2022-12-05T19:11:47.626Z,75.90
2022-12-05T19:14:18.676Z,75.55
2022-12-05T19:16:46.229Z,75.54
2022-12-05T19:19:14.512Z,75.52
2022-12-05T19:21:42.519Z,75.34
2022-12-05T19:24:14.642Z,75.10
2022-12-05T19:26:42.323Z,75.27
2022-12-05T19:29:12.138Z,74.83
2022-12-05T19:31:39.457Z,75.00
2022-12-05T19:34:09.189Z,75.24
2022-12-05T19:36:40.725Z,75.15
2022-12-05T19:39:15.689Z,75.69
2022-12-05T19:41:42.926Z,75.36
2022-12-05T19:44:10.387Z,75.51
2022-12-05T19:46:37.967Z,75.44
2022-12-05T19:49:09.221Z,75.72
2022-12-05T19:51:37.250Z,75.48
2022-12-05T19:54:06.436Z,75.43
2022-12-05T19:56:35.425Z,75.33
2022-12-05T19:59:02.439Z,75.53
2022-12-05T20:01:36.105Z,75.50
2022-12-05T20:04:08.338Z,75.71
2022-12-05T20:06:42.506Z,75.49
2022-12-05T20:09:11.970Z,75.75
2022-12-05T20:11:42.183Z,75.49
2022-12-05T20:14:11.835Z,75.71
2022-12-05T20:16:38.689Z,75.61
2022-12-05T20:19:06.139Z,75.40
2022-12-05T20:21:35.001Z,75.42
2022-12-05T20:24:04.223Z,75.37
2022-12-05T20:26:37.287Z,75.55
2022-12-05T20:29:05.370Z,75.85
2022-12-05T20:31:41.466Z,75.30
2022-12-05T20:34:13.314Z,74.96
2022-12-05T20:36:40.120Z,75.08
2022-12-05T20:39:12.826Z,75.14
2022-12-05T20:41:40.084Z,75.32
2022-12-05T20:44:08.758Z,74.58
2022-12-05T20:46:36.985Z,74.88
2022-12-05T20:49:04.450Z,74.74
2022-12-05T20:51:34.562Z,74.76
2022-12-05T20:54:03.762Z,75.13
2022-12-05T20:56:33.985Z,75.03
2022-12-05T20:59:04.947Z,75.26
2022-12-05T21:01:35.107Z,75.17
2022-12-05T21:04:03.734Z,75.35
2022-12-05T21:06:34.647Z,75.34
2022-12-05T21:09:03.220Z,75.50
2022-12-05T21:11:30.801Z,75.51
2022-12-05T21:14:05.036Z,75.33
2022-12-05T21:16:32.075Z,75.17
2022-12-05T21:18:59.942Z,75.04
2022-12-05T21:21:28.982Z,74.80
2022-12-05T21:23:59.022Z,74.96
2022-12-05T21:26:28.902Z,75.26
2022-12-05T21:28:56.604Z,75.37
2022-12-05T21:31:37.460Z,75.44
2022-12-05T21:34:11.628Z,75.79
2022-12-05T21:36:38.414Z,75.60
2022-12-05T21:39:06.587Z,75.53
2022-12-05T21:41:34.008Z,75.62
2022-12-05T21:44:01.622Z,75.77
2022-12-05T21:46:28.674Z,75.32
2022-12-05T21:48:55.795Z,75.27
2022-12-05T21:51:23.482Z,74.87
2022-12-05T21:53:51.237Z,75.28
2022-12-05T21:56:22.919Z,75.41
2022-12-05T21:58:50.389Z,75.50
2022-12-05T22:01:22.502Z,75.36
2022-12-05T22:03:59.217Z,74.70
2022-12-05T22:06:26.134Z,74.66
2022-12-05T22:08:54.580Z,75.08
2022-12-05T22:11:23.491Z,75.34
2022-12-05T22:13:51.416Z,75.32
2022-12-05T22:16:19.507Z,75.38
2022-12-05T22:18:47.181Z,75.42
2022-12-05T22:21:20.037Z,75.34
2022-12-05T22:23:47.890Z,75.20
2022-12-05T22:26:22.356Z,75.48
2022-12-05T22:28:54.491Z,75.29
2022-12-05T22:31:23.323Z,75.14
2022-12-05T22:33:50.376Z,75.09
2022-12-05T22:36:19.219Z,75.23
2022-12-05T22:38:47.978Z,74.86
2022-12-05T22:41:18.685Z,75.03
2022-12-05T22:43:47.813Z,75.07
2022-12-05T22:46:18.786Z,75.28
2022-12-05T22:48:47.588Z,75.40
2022-12-05T22:51:15.766Z,75.39
2022-12-05T22:53:42.781Z,75.15
2022-12-05T22:56:15.949Z,75.57
2022-12-05T22:58:43.977Z,75.24
2022-12-05T23:01:23.888Z,75.40
2022-12-05T23:03:56.760Z,75.23
2022-12-05T23:06:23.715Z,75.25
2022-12-05T23:08:50.560Z,75.40
2022-12-05T23:11:19.748Z,75.52
2022-12-05T23:13:47.897Z,75.36
2022-12-05T23:16:22.046Z,75.14
2022-12-05T23:18:51.310Z,75.61
2022-12-05T23:21:32.477Z,75.44
2022-12-05T23:24:02.425Z,75.69
2022-12-05T23:26:33.893Z,75.44
2022-12-05T23:29:01.037Z,75.31
2022-12-05T23:31:27.929Z,75.33
2022-12-05T23:33:59.716Z,75.54
2022-12-05T23:36:29.900Z,75.38
2022-12-05T23:38:56.722Z,75.49
2022-12-05T23:41:26.056Z,75.12
2022-12-05T23:43:53.496Z,75.28
2022-12-05T23:46:24.582Z,74.98
2022-12-05T23:48:51.793Z,75.20
2022-12-05T23:51:22.569Z,75.64
2022-12-05T23:53:55.136Z,75.32
2022-12-05T23:56:25.524Z,75.60
2022-12-05T23:58:54.186Z,75.72
